Time;durP1;ratioP1;P1;durP2;ratioP2;P2;SDS_P1;SDS_P2;PMS_P1;PMS_P2;Temp;Humidity;BMP_temperature;BMP_pressure;BME280_temperature;BME280_humidity;BME280_pressure;Samples;Min_cycle;Max_cycle;Signal;HPM_P1;HPM_P2
2023/04/14 00:01:28;;;;;;;4.80;1.52;;;6.50;99.90;;;;;;5011477;28;20144;-51
2023/04/14 00:03:54;;;;;;;5.75;1.52;;;6.50;99.90;;;;;;5012133;28;20647;-57
2023/04/14 00:06:20;;;;;;;5.43;1.42;;;6.40;99.90;;;;;;5011486;28;20470;-54
2023/04/14 00:08:45;;;;;;;4.97;1.50;;;6.30;99.90;;;;;;5011541;28;20040;-59
2023/04/14 00:11:11;;;;;;;4.57;1.75;;;6.30;99.90;;;;;;5010776;28;20137;-53
2023/04/14 00:13:37;;;;;;;5.35;1.70;;;6.20;99.90;;;;;;5011210;28;20492;-56
2023/04/14 00:16:03;;;;;;;4.30;1.50;;;6.20;99.90;;;;;;5010476;28;20045;-55
2023/04/14 00:18:28;;;;;;;4.00;1.77;;;6.10;99.90;;;;;;5011986;28;20509;-52
2023/04/14 00:20:54;;;;;;;4.25;1.52;;;6.10;99.90;;;;;;5010897;28;20096;-57
2023/04/14 00:23:20;;;;;;;5.50;1.60;;;6.00;99.90;;;;;;5011208;28;20076;-53
2023/04/14 00:25:48;;;;;;;5.00;1.80;;;6.00;99.90;;;;;;5009897;28;20037;-57
2023/04/14 00:28:14;;;;;;;7.07;1.75;;;6.30;99.90;;;;;;5007105;28;20034;-54
2023/04/14 00:30:39;;;;;;;7.28;1.88;;;6.00;99.90;;;;;;5011684;28;20093;-51
2023/04/14 00:33:05;;;;;;;6.50;1.80;;;5.90;99.90;;;;;;5009902;28;20104;-51
2023/04/14 00:35:31;;;;;;;5.88;1.77;;;5.80;99.90;;;;;;5010458;28;20034;-51
2023/04/14 00:37:57;;;;;;;6.97;1.75;;;5.80;99.90;;;;;;5012323;28;20084;-47
2023/04/14 00:40:23;;;;;;;7.40;2.17;;;5.90;99.90;;;;;;4993095;28;20526;-56
2023/04/14 00:42:49;;;;;;;5.93;2.10;;;5.80;99.90;;;;;;5012485;28;20543;-55
2023/04/14 00:45:15;;;;;;;5.13;1.85;;;5.80;99.90;;;;;;5012813;28;20042;-54
2023/04/14 00:47:45;;;;;;;6.85;1.90;;;5.80;99.90;;;;;;5011530;28;20077;-60
2023/04/14 00:50:12;;;;;;;5.38;2.00;;;5.80;99.90;;;;;;5010659;28;20042;-57
2023/04/14 00:52:39;;;;;;;4.18;1.80;;;5.80;99.90;;;;;;5010938;28;20045;-56
2023/04/14 00:55:05;;;;;;;7.05;2.83;;;5.80;99.90;;;;;;5010407;28;20045;-54
2023/04/14 00:57:31;;;;;;;7.43;2.53;;;5.80;99.90;;;;;;5012104;28;20042;-53
2023/04/14 00:59:59;;;;;;;5.88;1.90;;;5.90;99.90;;;;;;5009211;28;20069;-53
2023/04/14 01:02:25;;;;;;;7.70;2.42;;;5.70;99.90;;;;;;5008058;28;20050;-54
2023/04/14 01:04:50;;;;;;;8.02;2.35;;;5.60;99.90;;;;;;5010366;28;20465;-55
2023/04/14 01:07:18;;;;;;;5.65;2.33;;;5.60;99.90;;;;;;5010335;28;20128;-55
2023/04/14 01:09:44;;;;;;;7.10;2.00;;;5.60;99.90;;;;;;5009922;28;20057;-54
2023/04/14 01:12:38;;;;;;;5.68;2.33;;;5.80;99.90;;;;;;5008840;28;20057;-49
2023/04/14 01:15:14;;;;;;;7.20;2.22;;;5.50;99.90;;;;;;5005929;28;20042;-56
2023/04/14 01:18:01;;;;;;;8.82;2.20;;;5.50;99.90;;;;;;5008781;28;20044;-56
2023/04/14 01:20:38;;;;;;;5.10;1.90;;;5.50;99.90;;;;;;5010710;28;20048;-53
2023/04/14 01:23:07;;;;;;;7.15;2.13;;;5.40;99.90;;;;;;5010548;28;20096;-56
2023/04/14 01:26:16;;;;;;;5.70;1.92;;;5.40;99.90;;;;;;5010832;28;19926;-51
2023/04/14 01:29:04;;;;;;;10.60;2.30;;;5.30;99.90;;;;;;4946788;29;20566;-52
2023/04/14 01:31:34;;;;;;;5.30;1.90;;;5.20;99.90;;;;;;5009216;28;20048;-54
2023/04/14 01:34:14;;;;;;;10.05;1.98;;;5.10;99.90;;;;;;5009568;28;20045;-54
2023/04/14 01:36:43;;;;;;;5.95;1.67;;;5.10;99.90;;;;;;4990009;28;20478;-58
2023/04/14 01:39:13;;;;;;;6.05;1.95;;;5.00;99.90;;;;;;5009588;28;20049;-55
2023/04/14 01:41:43;;;;;;;8.05;2.22;;;4.90;99.90;;;;;;4992279;28;20036;-57
2023/04/14 01:44:11;;;;;;;7.25;2.10;;;5.30;99.90;;;;;;5008796;28;20049;-55
2023/04/14 01:46:40;;;;;;;7.50;2.20;;;4.90;99.90;;;;;;4996088;28;20470;-55
2023/04/14 01:49:05;;;;;;;8.25;2.05;;;4.90;99.90;;;;;;5010126;28;20073;-53
2023/04/14 01:51:32;;;;;;;7.20;2.30;;;4.90;99.90;;;;;;5011246;28;20034;-58
2023/04/14 01:54:01;;;;;;;10.05;2.30;;;4.80;99.90;;;;;;5011141;28;20101;-53
2023/04/14 01:56:27;;;;;;;7.53;2.25;;;4.80;99.90;;;;;;5009791;28;20033;-52
2023/04/14 01:58:55;;;;;;;6.72;2.28;;;5.10;99.90;;;;;;5009791;28;20053;-54
2023/04/14 02:01:21;;;;;;;5.68;2.00;;;4.90;99.90;;;;;;5009987;28;20033;-53
2023/04/14 02:03:48;;;;;;;11.20;3.22;;;4.80;99.90;;;;;;5011006;28;20052;-48
2023/04/14 02:06:16;;;;;;;5.85;1.90;;;4.90;99.90;;;;;;5008704;28;20041;-52
2023/04/14 02:08:42;;;;;;;7.03;2.20;;;4.80;99.90;;;;;;5010331;28;20045;-54
2023/04/14 02:11:11;;;;;;;9.77;2.38;;;4.80;99.90;;;;;;5010044;28;20038;-52
2023/04/14 02:13:40;;;;;;;6.03;2.13;;;4.80;99.90;;;;;;5008902;28;20041;-54
2023/04/14 02:16:09;;;;;;;8.95;2.47;;;4.80;99.90;;;;;;5013003;28;20049;-56
2023/04/14 02:18:37;;;;;;;8.52;2.50;;;4.90;99.90;;;;;;5015667;28;20030;-48
2023/04/14 02:21:03;;;;;;;10.45;2.63;;;4.80;99.90;;;;;;5022140;28;20034;-49
2023/04/14 02:23:30;;;;;;;15.02;2.55;;;4.80;99.90;;;;;;5010398;28;20038;-55
2023/04/14 02:26:01;;;;;;;5.53;2.13;;;4.80;99.90;;;;;;5010355;28;20041;-54
2023/04/14 02:28:32;;;;;;;9.57;2.38;;;4.80;99.90;;;;;;5010371;28;20042;-49
2023/04/14 02:31:04;;;;;;;5.20;2.00;;;4.80;99.90;;;;;;5010346;28;20034;-52
2023/04/14 02:33:34;;;;;;;5.97;2.25;;;4.70;99.90;;;;;;5010328;28;20525;-53
2023/04/14 02:36:03;;;;;;;5.18;2.45;;;4.70;99.90;;;;;;5017677;28;20452;-56
2023/04/14 02:38:55;;;;;;;7.63;2.40;;;4.60;99.90;;;;;;5009656;28;20038;-54
2023/04/14 02:41:29;;;;;;;7.97;2.10;;;4.60;99.90;;;;;;5009901;28;20409;-55
2023/04/14 02:44:12;;;;;;;4.65;2.10;;;4.60;99.90;;;;;;5008934;28;20481;-50
2023/04/14 02:46:43;;;;;;;11.32;2.20;;;4.50;99.90;;;;;;5018803;28;20085;-51
2023/04/14 02:49:12;;;;;;;8.35;2.50;;;4.50;99.90;;;;;;5010120;28;20046;-56
2023/04/14 02:51:39;;;;;;;7.65;2.42;;;4.90;99.90;;;;;;5008291;28;20038;-56
2023/04/14 02:54:06;;;;;;;7.13;2.35;;;5.00;99.90;;;;;;5009053;28;20041;-54
2023/04/14 02:56:33;;;;;;;5.38;2.10;;;4.50;99.90;;;;;;5011005;28;20033;-54
2023/04/14 02:59:00;;;;;;;5.30;2.20;;;4.40;99.90;;;;;;5010628;28;20071;-55
2023/04/14 03:01:27;;;;;;;7.95;2.50;;;4.50;99.90;;;;;;5010367;28;20038;-53
2023/04/14 03:03:56;;;;;;;7.10;2.58;;;4.60;99.90;;;;;;5012115;28;20049;-53
2023/04/14 03:06:23;;;;;;;7.47;2.65;;;4.50;99.90;;;;;;5010170;28;20117;-55
2023/04/14 03:08:50;;;;;;;10.85;2.53;;;4.50;99.90;;;;;;5008908;28;20125;-52
2023/04/14 03:11:17;;;;;;;7.30;2.20;;;4.50;99.90;;;;;;5009676;28;20107;-53
2023/04/14 03:13:45;;;;;;;6.28;2.20;;;4.60;99.90;;;;;;5010192;28;20120;-52
2023/04/14 03:16:12;;;;;;;7.53;2.50;;;4.70;99.90;;;;;;5010000;28;20049;-54
2023/04/14 03:18:39;;;;;;;7.47;2.13;;;4.50;99.90;;;;;;5009730;28;20054;-55
2023/04/14 03:21:05;;;;;;;5.25;2.20;;;4.60;99.90;;;;;;5008680;28;20611;-53
2023/04/14 03:23:32;;;;;;;6.72;2.60;;;4.40;99.90;;;;;;5012945;28;20116;-55
2023/04/14 03:25:59;;;;;;;5.63;2.20;;;4.30;99.90;;;;;;5009781;28;20042;-56
2023/04/14 03:28:29;;;;;;;5.40;2.35;;;4.40;99.90;;;;;;5008423;28;20154;-51
2023/04/14 03:30:56;;;;;;;12.13;2.50;;;4.30;99.90;;;;;;5009599;28;20042;-50
2023/04/14 03:33:25;;;;;;;6.20;2.25;;;4.30;99.90;;;;;;5010565;28;20124;-53
2023/04/14 03:35:52;;;;;;;7.72;2.05;;;4.30;99.90;;;;;;5015472;28;20113;-52
2023/04/14 03:38:19;;;;;;;8.13;2.60;;;4.20;99.90;;;;;;5007917;28;20042;-50
2023/04/14 03:40:46;;;;;;;7.93;2.63;;;4.20;99.90;;;;;;5014107;28;20125;-55
2023/04/14 03:43:21;;;;;;;6.35;2.00;;;4.20;99.90;;;;;;5017550;28;20115;-54
2023/04/14 03:45:50;;;;;;;6.90;2.42;;;4.20;99.90;;;;;;5009100;28;20060;-57
2023/04/14 03:48:19;;;;;;;8.98;2.55;;;4.10;99.90;;;;;;5008627;28;20500;-51
2023/04/14 03:50:48;;;;;;;7.53;2.10;;;4.20;99.90;;;;;;5011085;28;20034;-53
2023/04/14 03:53:16;;;;;;;8.50;2.45;;;4.10;99.90;;;;;;4978597;28;20045;-49
2023/04/14 03:55:45;;;;;;;8.40;2.40;;;4.20;99.90;;;;;;5012034;28;20048;-55
2023/04/14 03:58:13;;;;;;;7.15;2.30;;;4.10;99.90;;;;;;5011858;28;20081;-51
2023/04/14 04:00:39;;;;;;;9.55;2.67;;;4.00;99.90;;;;;;4993905;28;20060;-53
2023/04/14 04:03:05;;;;;;;9.77;2.28;;;4.10;99.90;;;;;;5012121;28;20042;-58
2023/04/14 04:05:33;;;;;;;11.65;2.55;;;4.10;99.90;;;;;;5010568;28;20096;-56
2023/04/14 04:08:02;;;;;;;7.50;2.55;;;4.00;99.90;;;;;;5012570;28;20117;-58
2023/04/14 04:10:33;;;;;;;9.77;2.60;;;4.30;99.90;;;;;;4992779;28;20026;-56
2023/04/14 04:13:08;;;;;;;9.95;2.50;;;3.90;99.90;;;;;;5003966;28;20144;-54
2023/04/14 04:15:35;;;;;;;6.65;2.47;;;3.90;99.90;;;;;;5009456;28;20041;-50
2023/04/14 04:18:04;;;;;;;9.73;2.42;;;3.90;99.90;;;;;;5010612;28;20112;-58
2023/04/14 04:20:31;;;;;;;8.65;3.00;;;3.80;99.90;;;;;;5011450;28;20085;-52
2023/04/14 04:23:00;;;;;;;10.02;2.45;;;3.90;99.90;;;;;;5010674;28;20046;-52
2023/04/14 04:25:26;;;;;;;11.50;2.60;;;3.90;99.90;;;;;;5012018;28;20045;-53
2023/04/14 04:27:52;;;;;;;12.60;3.13;;;3.90;99.90;;;;;;4993739;28;20060;-58
2023/04/14 04:30:21;;;;;;;7.15;2.70;;;3.90;99.90;;;;;;5011549;28;20030;-51
2023/04/14 04:32:47;;;;;;;7.00;2.83;;;3.90;99.90;;;;;;5009268;28;20454;-55
2023/04/14 04:35:14;;;;;;;7.40;2.47;;;3.90;99.90;;;;;;5011590;28;20084;-52
2023/04/14 04:37:42;;;;;;;11.00;3.03;;;4.00;99.90;;;;;;5010509;28;20054;-53
2023/04/14 04:40:08;;;;;;;8.00;2.83;;;3.90;99.90;;;;;;5010679;28;20444;-51
2023/04/14 04:42:39;;;;;;;8.75;2.72;;;3.90;99.90;;;;;;5010694;28;20663;-58
2023/04/14 04:45:06;;;;;;;7.40;2.65;;;4.00;99.90;;;;;;5010280;28;20081;-50
2023/04/14 04:47:31;;;;;;;7.80;2.88;;;3.90;99.90;;;;;;5018631;28;20509;-51
2023/04/14 04:49:57;;;;;;;9.45;3.22;;;3.80;99.90;;;;;;5011580;28;20036;-51
2023/04/14 04:52:23;;;;;;;8.63;2.70;;;3.90;99.90;;;;;;5010767;28;20041;-50
2023/04/14 04:54:51;;;;;;;7.15;2.53;;;3.80;99.90;;;;;;5011568;28;20052;-52
2023/04/14 04:57:17;;;;;;;10.93;2.88;;;3.80;99.90;;;;;;5010131;28;20436;-58
2023/04/14 04:59:43;;;;;;;9.93;2.88;;;3.80;99.90;;;;;;5009035;28;20054;-51
2023/04/14 05:02:08;;;;;;;9.23;3.17;;;3.70;99.90;;;;;;5011747;28;20474;-55
2023/04/14 05:04:34;;;;;;;9.55;2.88;;;3.80;99.90;;;;;;5011422;28;20044;-50
2023/04/14 05:07:01;;;;;;;8.02;2.78;;;3.70;99.90;;;;;;5011032;28;20050;-55
2023/04/14 05:09:26;;;;;;;6.13;3.08;;;3.80;99.90;;;;;;5012012;28;20072;-53
2023/04/14 05:11:52;;;;;;;6.00;2.90;;;3.70;99.90;;;;;;5011678;28;20030;-56
2023/04/14 05:14:18;;;;;;;9.77;3.20;;;3.70;99.90;;;;;;5017451;28;20092;-56
2023/04/14 05:16:43;;;;;;;10.98;4.00;;;3.80;99.90;;;;;;5019735;28;20029;-51
2023/04/14 05:19:09;;;;;;;9.70;3.40;;;3.80;99.90;;;;;;5011463;28;20037;-53
2023/04/14 05:21:35;;;;;;;13.60;3.03;;;3.80;99.90;;;;;;5011875;28;20103;-55
2023/04/14 05:24:00;;;;;;;12.48;3.13;;;3.70;99.90;;;;;;5008773;28;20061;-53
2023/04/14 05:26:26;;;;;;;10.38;2.97;;;3.90;99.90;;;;;;5007262;28;20380;-54
2023/04/14 05:28:52;;;;;;;8.93;2.83;;;3.80;99.90;;;;;;5011441;28;20075;-56
2023/04/14 05:31:18;;;;;;;9.75;3.30;;;4.00;99.90;;;;;;5017299;28;20108;-50
2023/04/14 05:33:44;;;;;;;7.93;3.00;;;3.80;99.90;;;;;;5010142;28;20393;-49
2023/04/14 05:36:10;;;;;;;9.27;2.90;;;3.80;99.90;;;;;;5010868;28;20049;-57
2023/04/14 05:38:39;;;;;;;8.00;3.33;;;3.90;99.90;;;;;;5011147;28;20058;-54
2023/04/14 05:41:06;;;;;;;11.23;3.63;;;4.00;99.90;;;;;;5009825;28;20033;-57
2023/04/14 05:43:32;;;;;;;9.40;3.72;;;4.00;99.90;;;;;;5011276;28;20104;-57
2023/04/14 05:45:57;;;;;;;16.98;3.72;;;4.20;99.90;;;;;;5010595;28;20050;-58
2023/04/14 05:48:26;;;;;;;11.32;4.13;;;4.60;99.90;;;;;;4993497;28;20044;-51
2023/04/14 05:50:52;;;;;;;13.20;4.40;;;4.30;99.90;;;;;;5009205;28;20048;-55
2023/04/14 05:53:17;;;;;;;8.80;3.63;;;4.30;99.90;;;;;;5009715;28;20042;-54
2023/04/14 05:55:44;;;;;;;10.48;3.97;;;4.50;99.90;;;;;;4990942;28;20063;-56
2023/04/14 05:58:11;;;;;;;11.65;4.05;;;4.50;99.90;;;;;;5010505;28;20038;-59
2023/04/14 06:00:37;;;;;;;10.43;3.95;;;4.80;99.90;;;;;;4992672;28;20950;-55
2023/04/14 06:03:02;;;;;;;10.73;3.78;;;4.60;99.90;;;;;;5008822;28;20535;-53
2023/04/14 06:05:28;;;;;;;13.02;4.40;;;4.70;99.90;;;;;;5009095;28;20068;-49
2023/04/14 06:07:54;;;;;;;14.90;4.70;;;4.70;99.90;;;;;;5011182;28;20489;-48
2023/04/14 06:10:20;;;;;;;9.48;4.40;;;4.80;99.90;;;;;;5006738;28;20030;-48
2023/04/14 06:12:45;;;;;;;12.07;4.82;;;4.80;99.90;;;;;;5002670;28;20105;-55
2023/04/14 06:15:11;;;;;;;13.05;4.43;;;5.00;99.90;;;;;;5001255;28;20410;-49
2023/04/14 06:17:38;;;;;;;12.77;4.15;;;5.00;99.90;;;;;;5009274;28;20128;-50
2023/04/14 06:20:05;;;;;;;15.85;4.68;;;5.10;99.90;;;;;;5008016;28;20041;-49
2023/04/14 06:22:31;;;;;;;20.42;5.63;;;5.10;99.90;;;;;;4992172;28;20041;-55
2023/04/14 06:24:57;;;;;;;17.33;5.55;;;5.10;99.90;;;;;;5008403;28;20092;-50
2023/04/14 06:27:25;;;;;;;16.52;5.38;;;5.50;99.90;;;;;;5009281;28;20045;-55
2023/04/14 06:29:51;;;;;;;15.15;5.25;;;5.30;99.90;;;;;;5008761;28;20117;-57
2023/04/14 06:32:20;;;;;;;14.43;5.03;;;5.40;99.90;;;;;;5010924;28;20108;-51
2023/04/14 06:34:47;;;;;;;13.48;5.15;;;5.40;99.90;;;;;;4990891;28;20057;-49
2023/04/14 06:37:15;;;;;;;13.10;5.40;;;5.50;99.90;;;;;;5008680;28;20053;-47
2023/04/14 06:39:40;;;;;;;12.15;4.85;;;5.60;99.90;;;;;;4990570;28;20054;-54
2023/04/14 06:42:06;;;;;;;12.02;5.07;;;5.70;99.90;;;;;;4975597;28;20585;-56
2023/04/14 06:44:32;;;;;;;14.70;5.85;;;5.70;99.90;;;;;;5008895;28;20077;-50
2023/04/14 06:46:58;;;;;;;13.63;5.38;;;5.70;99.90;;;;;;5019462;28;20081;-53
2023/04/14 06:49:23;;;;;;;12.80;4.93;;;5.80;99.90;;;;;;5019425;28;20038;-51
2023/04/14 06:51:49;;;;;;;14.52;5.05;;;5.90;99.90;;;;;;5009712;28;20034;-52
2023/04/14 06:54:15;;;;;;;14.48;4.95;;;5.90;99.90;;;;;;5019876;28;20120;-51
2023/04/14 06:56:41;;;;;;;13.07;4.70;;;6.00;99.90;;;;;;5030322;28;20038;-56
2023/04/14 06:59:06;;;;;;;9.90;4.55;;;6.10;99.90;;;;;;5006043;28;20034;-50
2023/04/14 07:01:32;;;;;;;16.98;4.90;;;7.50;99.90;;;;;;4999887;28;20490;-50
2023/04/14 07:03:58;;;;;;;14.77;5.40;;;6.20;99.90;;;;;;4997886;28;20080;-52
2023/04/14 07:06:23;;;;;;;14.68;5.30;;;6.30;99.90;;;;;;4998325;28;20074;-53
2023/04/14 07:08:49;;;;;;;12.18;4.75;;;6.30;99.90;;;;;;4999777;28;20100;-54
2023/04/14 07:11:15;;;;;;;13.02;4.70;;;6.40;99.90;;;;;;4999490;28;20037;-54
2023/04/14 07:13:41;;;;;;;11.85;4.68;;;6.50;99.90;;;;;;4998998;28;20771;-55
2023/04/14 07:16:07;;;;;;;12.90;4.18;;;6.50;99.90;;;;;;4996845;28;20046;-55
2023/04/14 07:18:33;;;;;;;16.15;4.82;;;6.70;99.90;;;;;;4997372;28;20038;-49
2023/04/14 07:21:00;;;;;;;13.70;5.28;;;6.80;99.90;;;;;;4996565;28;20129;-56
2023/04/14 07:23:26;;;;;;;17.20;4.88;;;6.80;99.90;;;;;;5000493;28;20042;-53
2023/04/14 07:25:54;;;;;;;16.33;5.30;;;6.90;99.90;;;;;;5004411;28;20077;-54
2023/04/14 07:28:20;;;;;;;12.02;4.45;;;6.90;99.90;;;;;;5001087;28;20049;-59
2023/04/14 07:30:47;;;;;;;14.20;4.28;;;7.10;99.90;;;;;;5002951;28;20042;-55
2023/04/14 07:33:13;;;;;;;9.60;4.00;;;7.10;99.90;;;;;;5003064;28;20034;-50
2023/04/14 07:35:40;;;;;;;9.63;4.60;;;7.30;99.90;;;;;;5001703;28;20038;-51
2023/04/14 07:38:06;;;;;;;12.85;3.65;;;7.40;99.90;;;;;;5002577;28;20129;-48
2023/04/14 07:40:32;;;;;;;11.32;3.45;;;7.60;99.90;;;;;;5001772;28;20049;-58
2023/04/14 07:42:57;;;;;;;13.13;3.75;;;7.70;99.90;;;;;;5002289;28;20529;-52
2023/04/14 07:45:23;;;;;;;11.63;3.67;;;7.80;99.90;;;;;;5000539;28;20557;-54
2023/04/14 07:47:50;;;;;;;9.93;3.50;;;7.90;99.90;;;;;;5000006;28;20066;-51
2023/04/14 07:50:17;;;;;;;10.57;3.65;;;8.00;99.90;;;;;;5001274;28;20485;-51
2023/04/14 07:52:43;;;;;;;10.27;3.10;;;8.10;99.90;;;;;;5000193;28;20128;-47
2023/04/14 07:55:08;;;;;;;11.02;3.20;;;8.20;99.90;;;;;;4999347;28;20030;-56
2023/04/14 07:57:34;;;;;;;12.60;3.65;;;8.30;99.90;;;;;;5001213;28;20049;-50
2023/04/14 08:00:00;;;;;;;13.25;4.07;;;8.40;99.90;;;;;;4999839;28;20092;-50
2023/04/14 08:02:26;;;;;;;15.98;3.38;;;8.40;99.90;;;;;;4999760;28;20041;-55
2023/04/14 08:04:51;;;;;;;9.35;3.60;;;8.50;99.90;;;;;;5001510;28;20041;-56
2023/04/14 08:07:17;;;;;;;10.48;3.85;;;8.60;99.90;;;;;;5000725;28;20033;-51
2023/04/14 08:09:43;;;;;;;12.75;3.88;;;8.70;99.90;;;;;;5001098;28;20469;-56
2023/04/14 08:12:08;;;;;;;10.32;4.03;;;8.70;99.90;;;;;;4999414;28;20026;-54
2023/04/14 08:14:34;;;;;;;12.63;3.97;;;8.80;99.90;;;;;;5001651;28;20069;-54
2023/04/14 08:17:00;;;;;;;13.77;4.75;;;8.90;99.90;;;;;;4997775;28;20038;-55
2023/04/14 08:19:25;;;;;;;12.70;3.60;;;9.00;99.90;;;;;;5000939;28;20041;-53
2023/04/14 08:21:51;;;;;;;8.95;3.60;;;9.10;99.90;;;;;;5000703;28;20125;-55
2023/04/14 08:24:17;;;;;;;10.68;4.07;;;9.20;99.90;;;;;;5000736;28;20052;-55
2023/04/14 08:26:43;;;;;;;13.68;4.22;;;9.20;99.90;;;;;;4998680;28;20080;-58
2023/04/14 08:29:08;;;;;;;9.30;3.55;;;9.30;99.90;;;;;;5000477;28;20033;-58
2023/04/14 08:31:34;;;;;;;11.88;3.97;;;9.40;99.90;;;;;;4998950;28;20172;-51
2023/04/14 08:34:00;;;;;;;11.80;3.58;;;9.50;99.90;;;;;;5000620;28;20046;-54
2023/04/14 08:36:26;;;;;;;8.60;3.17;;;9.60;99.90;;;;;;4999003;28;20037;-53
2023/04/14 08:38:52;;;;;;;12.85;3.47;;;9.60;99.90;;;;;;4999545;28;20042;-53
2023/04/14 08:41:21;;;;;;;12.30;3.38;;;9.70;99.90;;;;;;5001175;28;20046;-51
2023/04/14 08:43:47;;;;;;;10.57;3.20;;;9.80;99.90;;;;;;4998423;28;20042;-57
2023/04/14 08:46:15;;;;;;;11.75;3.50;;;9.90;99.90;;;;;;5000682;28;20046;-56
2023/04/14 08:48:44;;;;;;;8.85;2.92;;;9.90;99.90;;;;;;4999997;28;20069;-55
2023/04/14 08:51:27;;;;;;;9.82;2.90;;;10.00;99.90;;;;;;4997734;28;20223;-55
2023/04/14 08:53:55;;;;;;;10.07;3.47;;;10.10;99.90;;;;;;5001153;28;20275;-52
2023/04/14 08:56:26;;;;;;;9.50;2.97;;;10.20;99.90;;;;;;5000056;28;21266;-51
2023/04/14 08:58:52;;;;;;;11.98;3.05;;;10.30;99.90;;;;;;4997407;28;20911;-54
2023/04/14 09:01:18;;;;;;;14.52;3.30;;;10.40;99.90;;;;;;4999600;28;20491;-56
2023/04/14 09:03:46;;;;;;;11.10;3.10;;;10.50;99.90;;;;;;4999594;28;20057;-55
2023/04/14 09:06:13;;;;;;;8.63;3.20;;;10.60;99.90;;;;;;5000827;28;20484;-57
2023/04/14 09:08:39;;;;;;;10.52;2.90;;;10.70;99.90;;;;;;5006386;28;20145;-55
2023/04/14 09:11:04;;;;;;;8.20;2.50;;;10.80;99.90;;;;;;5008325;28;20545;-55
2023/04/14 09:13:30;;;;;;;9.43;2.60;;;10.90;99.90;;;;;;5007956;28;20067;-52
2023/04/14 09:15:57;;;;;;;8.10;2.50;;;11.10;99.90;;;;;;5008448;28;20155;-52
2023/04/14 09:18:24;;;;;;;6.70;2.20;;;11.10;99.90;;;;;;5007901;28;20115;-54
2023/04/14 09:20:51;;;;;;;8.80;2.60;;;11.20;99.90;;;;;;5010623;28;20088;-54
2023/04/14 09:23:18;;;;;;;6.93;2.08;;;11.40;99.90;;;;;;5008184;28;20065;-55
2023/04/14 09:25:44;;;;;;;7.03;2.10;;;11.40;99.90;;;;;;5008472;28;20046;-56
2023/04/14 09:28:10;;;;;;;8.23;2.50;;;11.50;99.90;;;;;;5008882;28;20045;-53
2023/04/14 09:30:36;;;;;;;6.43;2.30;;;11.60;99.90;;;;;;4992500;28;20087;-53
2023/04/14 09:33:06;;;;;;;9.45;2.58;;;11.70;99.90;;;;;;5009360;28;20338;-54
2023/04/14 09:35:48;;;;;;;10.25;2.50;;;11.80;99.90;;;;;;5008887;28;20030;-57
2023/04/14 09:38:30;;;;;;;6.90;2.55;;;11.80;99.90;;;;;;5011788;28;20037;-57
2023/04/14 09:40:56;;;;;;;7.97;2.70;;;12.00;99.90;;;;;;5009046;28;20034;-52
2023/04/14 09:43:26;;;;;;;8.77;2.55;;;12.10;99.90;;;;;;5010398;28;20095;-53
2023/04/14 09:45:53;;;;;;;9.93;2.50;;;12.30;99.90;;;;;;5010492;28;20038;-53
2023/04/14 09:48:19;;;;;;;8.38;2.13;;;12.40;99.90;;;;;;5008741;28;20532;-50
2023/04/14 09:51:08;;;;;;;7.32;2.33;;;12.50;99.90;;;;;;5010763;28;20506;-56
2023/04/14 09:53:39;;;;;;;6.95;2.38;;;12.40;99.90;;;;;;5009556;28;20141;-56
2023/04/14 09:56:07;;;;;;;6.50;2.20;;;12.30;99.90;;;;;;5009695;28;20034;-55
2023/04/14 09:58:38;;;;;;;8.48;2.20;;;12.30;99.90;;;;;;5009747;28;20033;-53
2023/04/14 10:01:27;;;;;;;6.85;2.15;;;12.40;99.90;;;;;;5008270;28;20064;-52
2023/04/14 10:03:52;;;;;;;5.93;1.65;;;12.60;99.90;;;;;;4991031;28;20188;-55
2023/04/14 10:06:20;;;;;;;5.35;1.88;;;12.70;99.90;;;;;;5009475;28;20061;-56
2023/04/14 10:08:48;;;;;;;8.52;2.25;;;12.50;99.90;;;;;;5008989;28;20048;-52
2023/04/14 10:11:28;;;;;;;7.70;2.03;;;12.40;99.90;;;;;;5009906;28;20077;-55
2023/04/14 10:14:05;;;;;;;8.82;2.42;;;12.30;99.90;;;;;;5008573;28;20038;-51
2023/04/14 10:16:32;;;;;;;8.45;2.00;;;12.20;99.90;;;;;;5006112;28;20577;-51
2023/04/14 10:18:58;;;;;;;8.60;2.35;;;12.10;99.90;;;;;;4999003;28;20065;-55
2023/04/14 10:21:26;;;;;;;7.97;2.42;;;12.20;99.90;;;;;;4981333;28;20108;-56
2023/04/14 10:23:55;;;;;;;8.57;2.30;;;12.30;99.90;;;;;;5003001;28;20053;-51
2023/04/14 10:26:21;;;;;;;7.22;1.90;;;12.50;99.90;;;;;;5008176;28;20042;-55
2023/04/14 10:28:49;;;;;;;7.65;1.85;;;12.60;99.90;;;;;;4998708;28;20045;-56
2023/04/14 10:31:27;;;;;;;7.07;2.20;;;12.60;99.90;;;;;;5003701;28;20033;-53
2023/04/14 10:33:53;;;;;;;7.70;1.75;;;12.60;99.90;;;;;;4986133;28;20128;-54
2023/04/14 10:36:28;;;;;;;7.00;1.80;;;12.60;99.90;;;;;;4988516;28;20086;-60
2023/04/14 10:38:59;;;;;;;6.53;1.95;;;12.80;99.90;;;;;;5008617;28;20060;-54
2023/04/14 10:41:25;;;;;;;10.02;2.58;;;13.00;99.90;;;;;;5007032;28;20046;-54
2023/04/14 10:43:51;;;;;;;10.15;2.30;;;13.20;99.90;;;;;;5007413;28;20456;-56
2023/04/14 10:46:16;;;;;;;8.20;2.30;;;13.30;99.90;;;;;;5004783;28;20038;-52
2023/04/14 10:48:47;;;;;;;7.97;2.22;;;13.30;99.90;;;;;;5001690;28;20157;-51
2023/04/14 10:51:16;;;;;;;7.28;2.20;;;13.30;99.90;;;;;;5003836;28;20070;-54
2023/04/14 10:53:51;;;;;;;4.82;1.88;;;13.20;99.90;;;;;;5003949;28;20034;-54
2023/04/14 10:56:20;;;;;;;6.22;2.05;;;13.10;99.90;;;;;;5007803;28;20117;-58
2023/04/14 10:58:55;;;;;;;7.90;2.10;;;13.10;99.90;;;;;;5009795;28;20077;-50
2023/04/14 11:01:26;;;;;;;9.15;2.08;;;13.40;99.90;;;;;;4988576;28;20116;-52
2023/04/14 11:03:54;;;;;;;9.90;2.17;;;13.60;99.90;;;;;;5012557;28;20042;-56
2023/04/14 11:06:57;;;;;;;7.18;1.90;;;13.60;99.90;;;;;;5002956;28;20034;-52
2023/04/14 11:09:29;;;;;;;6.85;2.05;;;13.60;99.90;;;;;;5003621;28;20050;-57
2023/04/14 11:11:56;;;;;;;5.57;1.80;;;13.80;99.90;;;;;;5003754;28;20049;-50
2023/04/14 11:14:26;;;;;;;6.05;2.38;;;13.90;99.90;;;;;;4989754;28;20374;-51
2023/04/14 11:16:58;;;;;;;6.75;1.95;;;14.10;99.90;;;;;;5006896;28;20556;-57
2023/04/14 11:19:24;;;;;;;5.60;1.88;;;14.40;99.90;;;;;;4997970;28;20064;-55
2023/04/14 11:21:52;;;;;;;7.18;1.88;;;14.60;99.90;;;;;;5006349;28;20121;-55
2023/04/14 11:24:20;;;;;;;7.45;2.10;;;14.50;99.90;;;;;;4979708;28;20053;-50
2023/04/14 11:26:46;;;;;;;8.25;2.08;;;14.60;99.90;;;;;;4998799;28;20038;-57
2023/04/14 11:29:12;;;;;;;7.75;2.00;;;14.80;99.90;;;;;;5008199;28;20080;-57
2023/04/14 11:31:38;;;;;;;6.78;1.98;;;14.90;99.90;;;;;;5000149;28;20084;-53
2023/04/14 11:34:05;;;;;;;7.05;1.95;;;15.00;99.90;;;;;;5007705;28;20477;-54
2023/04/14 11:36:35;;;;;;;7.53;2.17;;;15.20;99.90;;;;;;5005789;28;20041;-54
2023/04/14 11:39:02;;;;;;;5.28;1.50;;;15.50;99.90;;;;;;5003617;28;20050;-53
2023/04/14 11:41:28;;;;;;;5.57;1.67;;;15.70;99.90;;;;;;5006174;28;20034;-52
2023/04/14 11:43:54;;;;;;;6.47;1.48;;;16.00;99.90;;;;;;4994040;28;20038;-53
2023/04/14 11:46:21;;;;;;;4.50;1.48;;;16.20;99.90;;;;;;5015341;28;20404;-55
2023/04/14 11:48:46;;;;;;;6.03;1.63;;;16.20;99.90;;;;;;5012950;28;20156;-55
2023/04/14 11:51:12;;;;;;;5.15;1.63;;;16.10;99.90;;;;;;5013157;28;20113;-57
2023/04/14 11:53:39;;;;;;;6.63;1.83;;;16.10;99.90;;;;;;5010909;28;20048;-56
2023/04/14 11:56:08;;;;;;;8.88;1.80;;;16.00;99.90;;;;;;5012457;28;20544;-51
2023/04/14 11:58:33;;;;;;;7.50;1.90;;;15.90;99.90;;;;;;5010126;28;20037;-54
2023/04/14 12:00:59;;;;;;;6.32;2.17;;;15.60;99.90;;;;;;5011777;28;20042;-52
2023/04/14 12:03:27;;;;;;;6.75;2.38;;;15.30;99.90;;;;;;5010431;28;20128;-57
2023/04/14 12:06:00;;;;;;;6.18;1.60;;;15.20;99.90;;;;;;5011569;28;20042;-53
2023/04/14 12:08:28;;;;;;;6.90;1.88;;;15.30;99.90;;;;;;5011665;28;20045;-54
2023/04/14 12:10:55;;;;;;;4.72;1.52;;;15.70;99.90;;;;;;5011993;28;20104;-52
2023/04/14 12:13:22;;;;;;;4.95;1.67;;;16.00;99.90;;;;;;5012604;28;20441;-54
2023/04/14 12:15:47;;;;;;;6.57;1.70;;;16.20;99.90;;;;;;5012916;28;20029;-55
2023/04/14 12:18:14;;;;;;;6.88;1.80;;;16.30;99.90;;;;;;5012538;28;20048;-52
2023/04/14 12:20:55;;;;;;;6.55;1.40;;;16.50;99.90;;;;;;5011252;28;20042;-54
2023/04/14 12:23:21;;;;;;;6.07;1.58;;;16.70;99.90;;;;;;5012580;28;20038;-52
2023/04/14 12:25:50;;;;;;;6.28;1.65;;;16.70;99.90;;;;;;5013425;28;20034;-56
2023/04/14 12:28:26;;;;;;;4.57;1.40;;;16.80;99.90;;;;;;5013177;28;20088;-53
2023/04/14 12:30:55;;;;;;;7.15;1.80;;;16.80;99.80;;;;;;5011919;28;20069;-54
2023/04/14 12:33:26;;;;;;;4.20;1.35;;;17.00;99.90;;;;;;5012281;28;20034;-52
2023/04/14 12:35:52;;;;;;;5.00;1.40;;;17.10;99.30;;;;;;5012363;28;20116;-52
2023/04/14 12:38:18;;;;;;;4.72;1.80;;;17.30;99.80;;;;;;5012435;28;20049;-54
2023/04/14 12:40:46;;;;;;;5.05;1.40;;;17.30;99.40;;;;;;5013146;28;20092;-52
2023/04/14 12:43:13;;;;;;;7.63;1.95;;;17.30;98.90;;;;;;5012227;28;20100;-50
2023/04/14 12:45:39;;;;;;;5.68;1.67;;;17.10;99.10;;;;;;5011835;28;20060;-58
2023/04/14 12:48:05;;;;;;;5.35;1.70;;;17.00;98.80;;;;;;5009922;28;20061;-55
2023/04/14 12:50:32;;;;;;;7.10;1.50;;;16.90;99.20;;;;;;5011448;28;20046;-57
2023/04/14 12:52:59;;;;;;;6.93;1.85;;;16.90;98.90;;;;;;5011092;28;20080;-58
2023/04/14 12:55:30;;;;;;;6.10;1.25;;;16.90;98.80;;;;;;5009737;28;20042;-50